createdAt,value
2018-08-06T00:01:48.732Z,0
2018-08-06T00:02:29.256Z,0
2018-08-06T00:03:09.784Z,0
2018-08-06T00:03:50.293Z,0
2018-08-06T00:04:30.800Z,0
2018-08-06T00:05:11.312Z,0
2018-08-06T00:05:51.811Z,0
2018-08-06T00:06:32.335Z,0
2018-08-06T00:07:12.854Z,0
2018-08-06T00:07:53.406Z,0
2018-08-06T00:08:33.862Z,0
2018-08-06T00:09:14.387Z,0
2018-08-06T00:09:54.901Z,0
2018-08-06T00:10:35.402Z,0
2018-08-06T00:11:15.899Z,0
2018-08-06T00:11:56.399Z,0
2018-08-06T00:12:36.906Z,0
2018-08-06T00:13:17.447Z,0
2018-08-06T00:13:57.971Z,0
2018-08-06T00:14:38.497Z,0
2018-08-06T00:15:19.005Z,0
2018-08-06T00:16:00.378Z,0
2018-08-06T00:18:18.770Z,0
2018-08-06T00:18:59.277Z,0
2018-08-06T00:19:39.774Z,0
2018-08-06T00:21:37.946Z,0
2018-08-06T00:22:18.442Z,0
2018-08-06T00:22:58.963Z,0
2018-08-06T00:23:39.504Z,0
2018-08-06T00:24:19.997Z,0
2018-08-06T00:25:00.497Z,0
2018-08-06T00:25:41.003Z,0
2018-08-06T00:26:21.574Z,0
2018-08-06T00:27:02.063Z,0
2018-08-06T00:27:42.589Z,0
2018-08-06T00:28:23.118Z,0
2018-08-06T00:29:03.639Z,0
2018-08-06T00:29:44.170Z,0
2018-08-06T00:30:24.680Z,0
2018-08-06T00:31:05.191Z,0
2018-08-06T00:31:45.728Z,0
2018-08-06T00:32:26.261Z,0
2018-08-06T00:33:06.785Z,0
2018-08-06T00:33:47.299Z,0
2018-08-06T00:34:27.826Z,0
2018-08-06T00:35:08.345Z,0
2018-08-06T00:35:48.852Z,0
2018-08-06T00:36:29.375Z,0
2018-08-06T00:37:09.893Z,0
2018-08-06T00:37:50.402Z,0
2018-08-06T00:38:30.910Z,0
2018-08-06T00:39:11.435Z,0
2018-08-06T00:39:51.980Z,0
2018-08-06T00:40:32.500Z,0
2018-08-06T00:41:13.025Z,0
2018-08-06T00:41:53.543Z,0
2018-08-06T00:42:34.071Z,0
2018-08-06T00:43:14.591Z,0
2018-08-06T00:43:55.118Z,0
2018-08-06T00:44:35.651Z,0
2018-08-06T00:45:16.181Z,0
2018-08-06T00:45:56.690Z,0
2018-08-06T00:46:37.213Z,0
2018-08-06T00:47:17.730Z,0
2018-08-06T00:47:58.273Z,0
2018-08-06T00:48:38.820Z,0
2018-08-06T00:49:19.317Z,0
2018-08-06T00:49:59.845Z,0
2018-08-06T00:50:40.371Z,0
2018-08-06T00:51:20.894Z,0
2018-08-06T00:52:01.420Z,0
2018-08-06T00:52:41.932Z,0
2018-08-06T00:53:22.471Z,0
2018-08-06T00:54:02.995Z,0
2018-08-06T00:54:43.511Z,0
2018-08-06T00:55:24.062Z,0
2018-08-06T00:56:04.569Z,0
2018-08-06T00:56:45.094Z,0
2018-08-06T00:57:25.614Z,0
2018-08-06T00:58:06.135Z,0
2018-08-06T00:58:46.647Z,0
2018-08-06T00:59:27.179Z,0
2018-08-06T01:00:07.711Z,0
2018-08-06T01:00:48.231Z,0
2018-08-06T01:01:28.751Z,0
2018-08-06T01:02:09.273Z,0
2018-08-06T01:02:49.804Z,0
2018-08-06T01:03:30.332Z,0
2018-08-06T01:04:10.849Z,0
2018-08-06T01:04:51.371Z,0
2018-08-06T01:05:31.910Z,0
2018-08-06T01:06:12.401Z,0
2018-08-06T01:06:52.902Z,0
2018-08-06T01:07:33.449Z,0
2018-08-06T01:08:13.984Z,0
2018-08-06T01:08:54.513Z,0
2018-08-06T01:09:34.980Z,0
2018-08-06T01:10:15.505Z,0
2018-08-06T01:10:55.993Z,0
2018-08-06T01:11:36.524Z,0
2018-08-06T01:12:17.028Z,0
2018-08-06T01:12:57.561Z,0
2018-08-06T01:13:38.080Z,0
2018-08-06T01:14:18.593Z,0
2018-08-06T01:14:59.092Z,0
2018-08-06T01:15:39.580Z,0
2018-08-06T01:16:20.092Z,0
2018-08-06T01:17:00.625Z,0
2018-08-06T01:17:41.130Z,0
2018-08-06T01:18:21.640Z,0
2018-08-06T01:19:02.151Z,0
2018-08-06T01:19:42.669Z,0
2018-08-06T01:20:23.192Z,0
2018-08-06T01:21:03.721Z,0
2018-08-06T01:21:44.253Z,0
2018-08-06T01:22:24.784Z,0
2018-08-06T01:23:05.291Z,0
2018-08-06T01:23:45.774Z,0
2018-08-06T01:24:26.291Z,0
2018-08-06T01:25:06.797Z,0
2018-08-06T01:25:47.317Z,0
2018-08-06T01:26:27.845Z,0
2018-08-06T01:27:08.389Z,0
2018-08-06T01:27:48.907Z,0
2018-08-06T01:28:29.454Z,0
2018-08-06T01:29:09.942Z,0
2018-08-06T01:31:28.309Z,0
2018-08-06T01:32:08.814Z,0
2018-08-06T01:32:49.376Z,0
2018-08-06T01:33:29.892Z,0
2018-08-06T01:34:10.383Z,0
2018-08-06T01:34:50.882Z,0
2018-08-06T01:35:31.393Z,0
2018-08-06T01:36:11.949Z,0
2018-08-06T01:36:52.521Z,0
2018-08-06T01:37:33.004Z,0
2018-08-06T01:38:13.472Z,0
2018-08-06T01:38:54.011Z,0
2018-08-06T01:39:34.528Z,0
2018-08-06T01:40:15.033Z,0
2018-08-06T01:40:55.528Z,0
2018-08-06T01:41:36.060Z,0
2018-08-06T01:42:16.588Z,0
2018-08-06T01:42:57.139Z,0
2018-08-06T01:43:37.646Z,0
2018-08-06T01:44:18.175Z,0
2018-08-06T01:44:58.688Z,0
2018-08-06T01:45:39.245Z,0
2018-08-06T01:46:19.744Z,0
2018-08-06T01:47:00.273Z,0
2018-08-06T01:47:40.805Z,0
2018-08-06T01:48:21.330Z,0
2018-08-06T01:49:01.816Z,0
2018-08-06T01:49:42.329Z,0
2018-08-06T01:50:22.903Z,0
2018-08-06T01:51:03.383Z,0
2018-08-06T01:51:43.888Z,0
2018-08-06T01:52:24.396Z,0
2018-08-06T01:53:04.898Z,0
2018-08-06T01:53:45.493Z,0
2018-08-06T01:54:26.014Z,0
2018-08-06T01:55:06.547Z,0
2018-08-06T01:55:47.087Z,0
2018-08-06T01:57:45.255Z,0
2018-08-06T01:58:25.753Z,0
2018-08-06T01:59:06.264Z,0
2018-08-06T01:59:46.784Z,0
2018-08-06T02:00:27.281Z,0
2018-08-06T02:01:07.817Z,0
2018-08-06T02:01:48.316Z,0
2018-08-06T02:02:28.824Z,0
2018-08-06T02:03:09.335Z,0
2018-08-06T02:03:49.836Z,0
2018-08-06T02:04:30.367Z,0
2018-08-06T02:05:10.886Z,0
2018-08-06T02:05:51.448Z,0
2018-08-06T02:06:31.967Z,0
2018-08-06T02:07:12.500Z,0
2018-08-06T02:07:53.010Z,0
2018-08-06T02:08:33.553Z,0
2018-08-06T02:09:14.053Z,0
2018-08-06T02:09:54.552Z,0
2018-08-06T02:10:35.041Z,0
2018-08-06T02:11:15.532Z,0
2018-08-06T02:11:56.041Z,0
2018-08-06T02:12:36.574Z,0
2018-08-06T02:13:17.050Z,0
2018-08-06T02:13:57.556Z,0
2018-08-06T02:14:38.130Z,0
2018-08-06T02:15:18.652Z,0
2018-08-06T02:15:59.183Z,0
2018-08-06T02:16:39.720Z,0
2018-08-06T02:17:20.230Z,0
2018-08-06T02:18:00.753Z,0
2018-08-06T02:18:41.298Z,0
2018-08-06T02:19:21.809Z,0
2018-08-06T02:20:02.339Z,0
2018-08-06T02:20:42.877Z,0
2018-08-06T02:21:23.351Z,0
2018-08-06T02:22:03.897Z,0
2018-08-06T02:22:44.436Z,0
2018-08-06T02:23:24.936Z,0
2018-08-06T02:24:05.407Z,0
2018-08-06T02:24:45.949Z,0
2018-08-06T02:25:26.445Z,0
2018-08-06T02:26:06.963Z,0
2018-08-06T02:26:47.512Z,0
2018-08-06T02:27:28.016Z,0
2018-08-06T02:28:08.528Z,0
2018-08-06T02:28:49.037Z,0
2018-08-06T02:29:29.544Z,0
2018-08-06T02:30:10.089Z,0
2018-08-06T02:30:50.556Z,0
2018-08-06T02:31:31.067Z,0
2018-08-06T02:33:29.263Z,0
2018-08-06T02:34:09.792Z,0
2018-08-06T02:34:50.271Z,0
2018-08-06T02:35:30.769Z,0
2018-08-06T02:36:11.318Z,0
2018-08-06T02:36:51.889Z,0
2018-08-06T02:37:32.418Z,0
2018-08-06T02:38:12.912Z,0
2018-08-06T02:38:53.421Z,0
2018-08-06T02:39:33.920Z,0
2018-08-06T02:40:14.429Z,0
2018-08-06T02:40:54.939Z,0
2018-08-06T02:41:35.431Z,0
2018-08-06T02:42:15.934Z,0
2018-08-06T02:42:56.442Z,0
2018-08-06T02:43:36.929Z,0
2018-08-06T02:44:17.431Z,0
2018-08-06T02:44:57.968Z,0
2018-08-06T02:45:38.442Z,0
2018-08-06T02:46:18.945Z,0
2018-08-06T02:46:59.434Z,0
2018-08-06T02:47:39.970Z,0
2018-08-06T02:48:20.476Z,0
2018-08-06T02:49:01.023Z,0
2018-08-06T02:49:41.544Z,0
2018-08-06T02:50:22.030Z,0
2018-08-06T02:51:02.542Z,0
2018-08-06T02:51:43.031Z,0
2018-08-06T02:52:23.554Z,0
2018-08-06T02:53:04.049Z,0
2018-08-06T02:53:44.632Z,0
2018-08-06T02:54:25.138Z,0
2018-08-06T02:56:38.423Z,0
2018-08-06T02:57:18.952Z,0
2018-08-06T02:57:59.468Z,0
2018-08-06T02:58:39.977Z,0
2018-08-06T02:59:20.462Z,0
2018-08-06T03:00:01.048Z,0
2018-08-06T03:00:41.517Z,0
2018-08-06T03:01:22.053Z,0
2018-08-06T03:02:02.582Z,0
2018-08-06T03:02:43.118Z,0
2018-08-06T03:03:23.604Z,0
2018-08-06T03:04:04.158Z,0
2018-08-06T03:06:37.776Z,0
2018-08-06T03:07:18.296Z,0
2018-08-06T03:07:58.772Z,0
2018-08-06T03:08:39.314Z,0
2018-08-06T03:09:19.869Z,0
2018-08-06T03:10:00.363Z,0
2018-08-06T03:10:40.844Z,0
2018-08-06T03:11:21.349Z,0
2018-08-06T03:12:01.876Z,0
2018-08-06T03:12:42.382Z,0
2018-08-06T03:13:22.902Z,0
2018-08-06T03:14:03.427Z,0
2018-08-06T03:14:43.957Z,0
2018-08-06T03:15:24.477Z,0
2018-08-06T03:16:04.994Z,0
2018-08-06T03:16:45.480Z,0
2018-08-06T03:17:25.977Z,0
2018-08-06T03:18:06.485Z,0
2018-08-06T03:18:46.994Z,0
2018-08-06T03:19:27.510Z,0
2018-08-06T03:20:08.083Z,0
2018-08-06T03:20:48.585Z,0
2018-08-06T03:21:29.101Z,0
2018-08-06T03:22:09.620Z,0
2018-08-06T03:22:50.194Z,0
2018-08-06T03:23:30.707Z,0
2018-08-06T03:24:11.192Z,0
2018-08-06T03:24:51.685Z,0
2018-08-06T03:25:32.217Z,0
2018-08-06T03:26:12.688Z,0
2018-08-06T03:26:53.204Z,0
2018-08-06T03:27:33.686Z,0
2018-08-06T03:28:14.222Z,0
2018-08-06T03:28:54.731Z,0
2018-08-06T03:29:35.242Z,0
2018-08-06T03:30:15.768Z,0
2018-08-06T03:30:56.274Z,0
2018-08-06T03:31:36.783Z,0
2018-08-06T03:32:17.324Z,0
2018-08-06T03:32:57.806Z,0
2018-08-06T03:33:38.316Z,0
2018-08-06T03:34:18.831Z,0
2018-08-06T03:34:59.383Z,0
2018-08-06T03:37:12.623Z,0
2018-08-06T03:37:53.140Z,0
2018-08-06T03:38:33.653Z,0
2018-08-06T03:39:14.162Z,0
2018-08-06T03:39:54.681Z,4
2018-08-06T03:40:35.186Z,0
2018-08-06T03:41:15.707Z,0
2018-08-06T03:41:56.209Z,0
2018-08-06T03:42:36.718Z,0
2018-08-06T03:43:17.211Z,4
2018-08-06T03:43:57.705Z,4
2018-08-06T03:44:38.224Z,0
2018-08-06T03:45:18.761Z,0
2018-08-06T03:45:59.247Z,4
2018-08-06T03:46:39.759Z,4
2018-08-06T03:47:20.291Z,4
2018-08-06T03:48:00.802Z,0
2018-08-06T03:48:41.326Z,4
2018-08-06T03:49:21.820Z,4
2018-08-06T03:50:02.303Z,4
2018-08-06T03:52:20.721Z,4
2018-08-06T03:53:01.231Z,8
2018-08-06T03:53:41.742Z,4
2018-08-06T03:54:22.390Z,8
2018-08-06T03:55:02.757Z,8
2018-08-06T03:55:43.255Z,8
2018-08-06T03:56:23.787Z,8
2018-08-06T03:57:04.309Z,8
2018-08-06T03:57:44.814Z,12
2018-08-06T03:58:25.328Z,8
2018-08-06T03:59:05.858Z,12
2018-08-06T03:59:46.364Z,12
2018-08-06T04:00:26.874Z,12
2018-08-06T04:01:07.363Z,12
2018-08-06T04:01:47.875Z,16
2018-08-06T04:02:28.389Z,16
2018-08-06T04:03:08.934Z,12
2018-08-06T04:03:49.484Z,16
2018-08-06T04:04:29.991Z,16
2018-08-06T04:05:10.503Z,20
2018-08-06T04:05:50.995Z,20
2018-08-06T04:06:31.497Z,20
2018-08-06T04:07:12.007Z,20
2018-08-06T04:07:52.514Z,24
2018-08-06T04:08:33.074Z,24
2018-08-06T04:09:13.587Z,24
2018-08-06T04:09:54.091Z,24
2018-08-06T04:10:34.612Z,28
2018-08-06T04:11:15.106Z,28
2018-08-06T04:11:55.601Z,32
2018-08-06T04:12:36.136Z,32
2018-08-06T04:13:16.651Z,36
2018-08-06T04:13:57.146Z,36
2018-08-06T04:14:37.761Z,36
2018-08-06T04:15:18.257Z,40
2018-08-06T04:15:58.808Z,40
2018-08-06T04:17:56.991Z,48
2018-08-06T04:18:37.614Z,48
2018-08-06T04:19:18.167Z,48
2018-08-06T04:19:58.673Z,52
2018-08-06T04:20:39.183Z,56
2018-08-06T04:21:19.702Z,56
2018-08-06T04:22:00.191Z,60
2018-08-06T04:22:40.706Z,64
2018-08-06T04:23:21.194Z,64
2018-08-06T04:24:01.721Z,68
2018-08-06T04:24:42.226Z,72
2018-08-06T04:25:22.711Z,72
2018-08-06T04:26:03.216Z,76
2018-08-06T04:26:43.909Z,76
2018-08-06T04:27:24.476Z,76
2018-08-06T04:28:04.945Z,80
2018-08-06T04:28:45.459Z,84
2018-08-06T04:29:26.014Z,88
2018-08-06T04:30:06.501Z,88
2018-08-06T04:30:47.064Z,92
2018-08-06T04:31:27.577Z,92
2018-08-06T04:32:08.109Z,96
2018-08-06T04:32:48.659Z,100
2018-08-06T04:33:29.099Z,104
2018-08-06T04:34:09.596Z,108
2018-08-06T04:34:50.116Z,108
2018-08-06T04:35:30.685Z,112
2018-08-06T04:36:11.246Z,112
2018-08-06T04:36:51.732Z,116
2018-08-06T04:37:32.257Z,116
2018-08-06T04:38:12.773Z,120
2018-08-06T04:38:53.260Z,124
2018-08-06T04:39:33.765Z,124
2018-08-06T04:40:14.273Z,128
2018-08-06T04:40:54.769Z,132
2018-08-06T04:41:35.315Z,136
2018-08-06T04:42:15.791Z,140
2018-08-06T04:42:56.307Z,144
2018-08-06T04:43:36.859Z,144
2018-08-06T04:44:17.378Z,144
2018-08-06T04:44:57.902Z,148
2018-08-06T04:45:38.429Z,152
2018-08-06T04:46:19.185Z,156
2018-08-06T04:46:59.693Z,160
2018-08-06T04:47:40.181Z,164
2018-08-06T04:48:20.717Z,168
2018-08-06T04:49:01.221Z,172
2018-08-06T04:49:41.740Z,172
2018-08-06T04:50:22.269Z,176
2018-08-06T04:51:02.728Z,180
2018-08-06T04:51:43.300Z,184
2018-08-06T04:52:23.802Z,184
2018-08-06T04:53:04.299Z,192
2018-08-06T04:55:22.649Z,192
2018-08-06T04:56:03.170Z,196
2018-08-06T04:56:43.800Z,192
2018-08-06T04:57:24.342Z,200
2018-08-06T04:58:04.878Z,200
2018-08-06T04:58:45.359Z,212
2018-08-06T04:59:25.881Z,216
2018-08-06T05:00:06.391Z,220
2018-08-06T05:00:46.873Z,224
2018-08-06T05:01:27.406Z,228
2018-08-06T05:02:07.936Z,220
2018-08-06T05:02:48.414Z,232
2018-08-06T05:03:28.913Z,236
2018-08-06T05:04:09.495Z,232
2018-08-06T05:04:49.986Z,240
2018-08-06T05:05:30.484Z,240
2018-08-06T05:06:10.975Z,248
2018-08-06T05:06:51.538Z,248
2018-08-06T05:07:31.960Z,248
2018-08-06T05:08:12.495Z,260
2018-08-06T05:08:52.962Z,260
2018-08-06T05:09:33.462Z,252
2018-08-06T05:10:13.960Z,252
2018-08-06T05:10:54.488Z,244
2018-08-06T05:11:34.994Z,248
2018-08-06T05:12:15.482Z,256
2018-08-06T05:12:56.012Z,252
2018-08-06T05:13:36.556Z,256
2018-08-06T05:14:17.046Z,256
2018-08-06T05:14:57.582Z,264
2018-08-06T05:15:38.096Z,276
2018-08-06T05:16:18.596Z,280
2018-08-06T05:16:59.162Z,264
2018-08-06T05:17:39.673Z,268
2018-08-06T05:18:20.140Z,272
2018-08-06T05:19:00.664Z,272
2018-08-06T05:19:41.182Z,280
2018-08-06T05:20:21.704Z,280
2018-08-06T05:21:02.227Z,280
2018-08-06T05:21:42.742Z,280
2018-08-06T05:22:23.267Z,288
2018-08-06T05:23:03.772Z,292
2018-08-06T05:23:44.275Z,296
2018-08-06T05:24:24.824Z,292
2018-08-06T05:25:05.348Z,292
2018-08-06T05:25:45.874Z,296
2018-08-06T05:26:26.424Z,296
2018-08-06T05:27:06.920Z,300
2018-08-06T05:27:47.440Z,300
2018-08-06T05:28:27.953Z,304
2018-08-06T05:29:08.461Z,304
2018-08-06T05:29:48.951Z,308
2018-08-06T05:30:29.466Z,312
2018-08-06T05:31:10.053Z,312
2018-08-06T05:31:50.484Z,312
2018-08-06T05:32:30.976Z,312
2018-08-06T05:33:11.502Z,316
2018-08-06T05:33:52.031Z,320
2018-08-06T05:34:32.546Z,320
2018-08-06T05:35:13.062Z,324
2018-08-06T05:35:53.575Z,324
2018-08-06T05:36:34.079Z,324
2018-08-06T05:37:14.626Z,328
2018-08-06T05:37:55.144Z,328
2018-08-06T05:38:35.661Z,328
2018-08-06T05:39:16.165Z,332
2018-08-06T05:39:56.724Z,336
2018-08-06T05:40:37.259Z,336
2018-08-06T05:41:17.775Z,340
2018-08-06T05:41:58.299Z,340
2018-08-06T05:42:38.810Z,344
2018-08-06T05:43:19.350Z,344
2018-08-06T05:43:59.869Z,348
2018-08-06T05:44:40.396Z,352
2018-08-06T05:45:20.926Z,348
2018-08-06T05:46:01.440Z,360
2018-08-06T05:46:41.959Z,364
2018-08-06T05:47:22.531Z,364
2018-08-06T05:48:03.001Z,360
2018-08-06T05:48:43.506Z,392
2018-08-06T05:49:24.046Z,428
2018-08-06T05:50:04.629Z,512
2018-08-06T05:50:45.117Z,648
2018-08-06T05:53:03.668Z,1084
2018-08-06T05:53:44.172Z,1380
2018-08-06T05:54:24.694Z,1508
2018-08-06T05:55:05.221Z,1528
2018-08-06T05:55:45.741Z,1504
2018-08-06T05:58:19.506Z,1344
2018-08-06T05:59:00.012Z,1244
2018-08-06T05:59:40.446Z,1160
2018-08-06T06:00:20.954Z,1120
2018-08-06T06:01:01.451Z,1060
2018-08-06T06:01:42.003Z,1020
2018-08-06T06:02:22.458Z,984
2018-08-06T06:03:02.961Z,960
2018-08-06T06:03:43.469Z,952
2018-08-06T06:04:23.970Z,948
2018-08-06T06:05:04.495Z,936
2018-08-06T06:05:45.018Z,972
2018-08-06T06:06:25.507Z,1044
2018-08-06T06:07:06.006Z,1088
2018-08-06T06:07:46.510Z,1192
2018-08-06T06:08:27.042Z,1256
2018-08-06T06:09:07.520Z,1276
2018-08-06T06:11:36.002Z,1412
2018-08-06T06:12:16.495Z,1460
2018-08-06T06:13:11.926Z,1468
2018-08-06T06:13:52.429Z,1472
2018-08-06T06:14:32.987Z,1444
2018-08-06T06:15:13.511Z,1472
2018-08-06T06:15:54.087Z,1456
2018-08-06T06:16:34.562Z,1484
2018-08-06T06:17:15.221Z,1436
2018-08-06T06:17:55.743Z,1432
2018-08-06T06:18:36.272Z,1352
2018-08-06T06:19:16.843Z,1268
2018-08-06T06:19:57.271Z,1180
2018-08-06T06:29:59.141Z,680
2018-08-06T06:30:40.039Z,664
2018-08-06T06:31:20.529Z,652
2018-08-06T06:32:01.024Z,628
2018-08-06T06:32:41.537Z,632
2018-08-06T06:33:22.051Z,632
2018-08-06T06:34:02.562Z,640
2018-08-06T06:36:31.053Z,644
2018-08-06T06:37:11.591Z,648
2018-08-06T06:39:24.967Z,612
2018-08-06T06:40:05.431Z,612
2018-08-06T06:40:45.914Z,612
2018-08-06T06:41:26.444Z,608
2018-08-06T06:42:06.926Z,612
2018-08-06T06:42:47.441Z,624
2018-08-06T06:43:27.966Z,620
2018-08-06T06:44:08.483Z,640
2018-08-06T06:44:49.009Z,664
2018-08-06T06:45:29.522Z,688
2018-08-06T06:46:10.060Z,732
2018-08-06T06:46:50.527Z,780
2018-08-06T06:47:31.118Z,844
2018-08-06T06:48:11.556Z,920
2018-08-06T06:48:52.156Z,964
2018-08-06T06:49:32.620Z,1020
2018-08-06T06:50:13.111Z,1084
2018-08-06T06:50:53.617Z,1144
2018-08-06T06:51:34.106Z,1188
2018-08-06T06:52:14.565Z,1252
2018-08-06T06:52:55.161Z,1328
2018-08-06T06:53:35.665Z,1372
2018-08-06T06:54:16.093Z,1416
2018-08-06T06:54:56.639Z,1464
2018-08-06T06:55:37.125Z,1480
2018-08-06T06:56:17.634Z,1484
2018-08-06T06:56:58.122Z,1500
2018-08-06T06:57:38.686Z,1432
2018-08-06T06:58:19.104Z,1436
2018-08-06T06:58:59.641Z,1496
2018-08-06T06:59:40.132Z,1488
2018-08-06T07:00:20.778Z,1512
2018-08-06T07:01:01.185Z,1512
2018-08-06T07:01:41.662Z,1504
2018-08-06T07:02:22.154Z,1560
2018-08-06T07:03:02.646Z,1520
2018-08-06T07:03:43.159Z,1492
2018-08-06T07:04:23.805Z,1552
2018-08-06T07:05:04.425Z,1564
2018-08-06T07:05:45.017Z,1540
2018-08-06T07:06:25.582Z,1540
2018-08-06T07:07:05.975Z,1548
2018-08-06T07:07:46.478Z,1592
2018-08-06T07:08:26.955Z,1552
2018-08-06T07:09:07.461Z,1544
2018-08-06T07:09:47.996Z,1548
2018-08-06T07:10:28.457Z,1544
2018-08-06T07:11:09.213Z,1528
2018-08-06T07:11:49.769Z,1584
2018-08-06T07:12:30.338Z,1556
2018-08-06T07:13:10.878Z,1588
2018-08-06T07:13:51.474Z,1544
2018-08-06T07:14:31.907Z,1536
2018-08-06T07:15:12.461Z,1508
2018-08-06T07:15:52.959Z,1524
2018-08-06T07:16:33.433Z,1540
2018-08-06T07:17:13.919Z,1516
2018-08-06T07:17:54.420Z,1568
2018-08-06T07:18:35.016Z,1532
2018-08-06T07:19:15.469Z,1516
2018-08-06T07:19:56.007Z,1520
2018-08-06T07:20:36.450Z,1508
2018-08-06T07:21:16.917Z,1504
2018-08-06T07:21:57.451Z,1520
2018-08-06T07:22:38.084Z,1480
2018-08-06T07:23:18.549Z,1472
2018-08-06T07:23:59.032Z,1476
2018-08-06T07:24:39.588Z,1468
2018-08-06T07:25:20.059Z,1480
2018-08-06T07:26:00.559Z,1508
2018-08-06T07:26:41.071Z,1448
2018-08-06T07:27:21.567Z,1512
2018-08-06T07:28:02.157Z,1472
2018-08-06T07:28:42.686Z,1480
2018-08-06T07:29:23.165Z,1484
2018-08-06T07:30:03.656Z,1452
2018-08-06T07:30:44.168Z,1456
2018-08-06T07:31:24.656Z,1448
2018-08-06T07:32:05.112Z,1432
2018-08-06T07:32:45.607Z,1440
2018-08-06T07:33:26.102Z,1448
2018-08-06T07:34:06.616Z,1444
2018-08-06T07:34:47.091Z,1440
2018-08-06T07:35:27.623Z,1400
2018-08-06T07:36:08.104Z,1412
2018-08-06T07:36:48.642Z,1400
2018-08-06T07:37:29.189Z,1388
2018-08-06T07:38:09.644Z,1376
2018-08-06T07:38:50.128Z,1372
2018-08-06T07:39:30.647Z,1340
2018-08-06T07:40:11.167Z,1376
2018-08-06T07:40:51.630Z,1308
2018-08-06T07:41:32.129Z,1320
2018-08-06T07:42:12.767Z,1332
2018-08-06T07:42:53.237Z,1316
2018-08-06T07:43:33.797Z,1320
2018-08-06T07:44:14.218Z,1304
2018-08-06T07:44:54.759Z,1276
2018-08-06T07:45:35.268Z,1292
2018-08-06T07:46:15.743Z,1276
2018-08-06T07:46:56.219Z,1264
2018-08-06T07:47:36.805Z,1244
2018-08-06T07:48:17.302Z,1172
2018-08-06T07:48:57.866Z,1228
2018-08-06T07:49:38.504Z,1228
2018-08-06T07:50:18.868Z,1224
2018-08-06T07:50:59.387Z,1216
2018-08-06T07:51:39.917Z,1192
2018-08-06T07:52:20.448Z,1220
2018-08-06T07:53:00.968Z,1212
2018-08-06T07:53:41.472Z,1192
2018-08-06T07:54:21.938Z,1168
2018-08-06T07:55:02.456Z,1176
2018-08-06T07:55:42.955Z,1180
2018-08-06T07:56:23.450Z,1156
2018-08-06T07:57:03.941Z,1156
2018-08-06T07:57:44.411Z,1144
2018-08-06T07:58:24.910Z,1136
2018-08-06T07:59:05.411Z,1128
2018-08-06T07:59:45.930Z,1116
2018-08-06T08:00:26.471Z,1116
2018-08-06T08:01:07.013Z,1112
2018-08-06T08:01:47.472Z,1088
2018-08-06T08:02:28.020Z,1092
2018-08-06T08:03:08.495Z,1072
2018-08-06T08:03:49.054Z,1064
2018-08-06T08:04:29.578Z,1068
2018-08-06T08:05:10.067Z,1044
2018-08-06T08:05:50.594Z,1044
2018-08-06T08:06:31.184Z,1048
2018-08-06T08:07:11.554Z,1032
2018-08-06T08:07:52.089Z,1020
2018-08-06T08:08:32.568Z,1016
2018-08-06T08:09:13.089Z,1016
2018-08-06T08:09:53.594Z,1004
2018-08-06T08:10:34.089Z,1020
2018-08-06T08:11:14.599Z,988
2018-08-06T08:11:55.121Z,1000
2018-08-06T08:12:35.589Z,1000
2018-08-06T08:13:16.296Z,964
2018-08-06T08:13:56.938Z,972
2018-08-06T08:14:37.439Z,956
2018-08-06T08:15:18.102Z,948
2018-08-06T08:15:58.560Z,928
2018-08-06T08:16:39.079Z,900
2018-08-06T08:17:19.571Z,872
2018-08-06T08:18:00.080Z,844
2018-08-06T08:18:40.575Z,824
2018-08-06T08:19:21.093Z,820
2018-08-06T08:20:01.554Z,808
2018-08-06T08:20:42.115Z,796
2018-08-06T08:21:22.573Z,792
2018-08-06T08:22:03.062Z,788
2018-08-06T08:22:43.564Z,792
2018-08-06T08:23:24.081Z,796
2018-08-06T08:24:04.592Z,788
2018-08-06T08:24:45.088Z,780
2018-08-06T08:25:25.668Z,792
2018-08-06T08:26:06.194Z,796
2018-08-06T08:26:46.673Z,792
2018-08-06T08:27:27.185Z,784
2018-08-06T08:28:07.656Z,780
2018-08-06T08:28:48.191Z,780
2018-08-06T08:29:29.117Z,776
2018-08-06T08:30:09.518Z,776
2018-08-06T08:30:50.070Z,768
2018-08-06T08:31:30.565Z,764
2018-08-06T08:32:11.017Z,760
2018-08-06T08:32:51.539Z,760
2018-08-06T08:33:32.024Z,744
2018-08-06T08:34:12.561Z,736
2018-08-06T08:34:53.082Z,740
2018-08-06T08:35:33.544Z,732
2018-08-06T08:36:14.009Z,732
2018-08-06T08:36:54.506Z,728
2018-08-06T08:37:35.033Z,724
2018-08-06T08:38:15.494Z,724
2018-08-06T08:38:56.009Z,712
2018-08-06T08:39:36.528Z,704
2018-08-06T08:40:17.007Z,700
2018-08-06T08:40:57.508Z,704
2018-08-06T08:41:38.018Z,696
2018-08-06T08:42:18.477Z,676
2018-08-06T08:42:59.040Z,672
2018-08-06T08:43:39.567Z,668
2018-08-06T08:44:20.009Z,672
2018-08-06T08:45:00.712Z,672
2018-08-06T08:45:41.275Z,668
2018-08-06T08:46:21.731Z,668
2018-08-06T08:47:02.248Z,672
2018-08-06T08:47:42.736Z,672
2018-08-06T08:48:23.288Z,668
2018-08-06T08:49:03.781Z,660
2018-08-06T08:49:44.299Z,660
2018-08-06T08:50:24.897Z,652
2018-08-06T08:51:05.445Z,648
2018-08-06T08:51:45.912Z,648
2018-08-06T08:52:26.637Z,648
2018-08-06T08:53:07.097Z,644
2018-08-06T08:53:47.583Z,648
2018-08-06T08:54:28.101Z,644
2018-08-06T08:55:08.551Z,640
2018-08-06T08:55:49.303Z,640
2018-08-06T08:56:29.851Z,640
2018-08-06T08:57:10.402Z,636
2018-08-06T08:57:50.901Z,640
2018-08-06T08:58:31.441Z,636
2018-08-06T08:59:11.906Z,632
2018-08-06T08:59:52.398Z,628
2018-08-06T09:00:32.869Z,632
2018-08-06T09:01:13.650Z,628
2018-08-06T09:01:54.197Z,632
2018-08-06T09:02:34.713Z,632
2018-08-06T09:03:15.237Z,628
2018-08-06T09:03:55.706Z,628
2018-08-06T09:04:36.208Z,632
2018-08-06T09:05:16.724Z,628
2018-08-06T09:05:57.238Z,628
2018-08-06T09:06:37.708Z,632
2018-08-06T09:07:18.277Z,640
2018-08-06T09:07:58.709Z,636
2018-08-06T09:08:39.259Z,632
2018-08-06T09:09:19.707Z,628
2018-08-06T09:10:00.259Z,624
2018-08-06T09:10:41.212Z,624
2018-08-06T09:11:21.668Z,624
2018-08-06T09:12:02.204Z,628
2018-08-06T09:12:42.709Z,616
2018-08-06T09:13:23.193Z,616
2018-08-06T09:14:03.698Z,620
2018-08-06T09:14:44.284Z,616
2018-08-06T09:15:24.751Z,620
2018-08-06T09:16:05.271Z,616
2018-08-06T09:16:45.738Z,612
2018-08-06T09:17:26.461Z,620
2018-08-06T09:18:07.218Z,612
2018-08-06T09:18:47.678Z,616
2018-08-06T09:19:28.164Z,612
2018-08-06T09:20:08.673Z,612
2018-08-06T09:20:49.211Z,608
2018-08-06T09:21:29.675Z,608
2018-08-06T09:22:10.221Z,608
2018-08-06T09:22:50.716Z,608
2018-08-06T09:23:31.258Z,608
2018-08-06T09:24:11.732Z,612
2018-08-06T09:24:52.249Z,612
2018-08-06T09:25:32.682Z,612
2018-08-06T09:26:13.173Z,612
2018-08-06T09:26:53.736Z,616
2018-08-06T09:27:34.178Z,596
2018-08-06T09:28:14.706Z,600
2018-08-06T09:28:55.223Z,604
2018-08-06T09:29:35.691Z,612
2018-08-06T09:30:16.219Z,616
2018-08-06T09:30:56.707Z,624
2018-08-06T09:31:37.210Z,620
2018-08-06T09:32:17.688Z,616
2018-08-06T09:32:58.165Z,620
2018-08-06T09:33:38.696Z,616
2018-08-06T09:34:19.210Z,624
2018-08-06T09:34:59.751Z,612
2018-08-06T09:35:40.421Z,608
2018-08-06T09:36:20.912Z,616
2018-08-06T09:37:01.450Z,616
2018-08-06T09:37:41.961Z,612
2018-08-06T09:38:22.494Z,620
2018-08-06T09:39:02.982Z,620
2018-08-06T09:39:43.460Z,620
2018-08-06T09:40:23.975Z,620
2018-08-06T09:41:04.746Z,620
2018-08-06T09:41:45.267Z,616
2018-08-06T09:42:25.788Z,612
2018-08-06T09:43:06.267Z,608
2018-08-06T09:43:46.740Z,600
2018-08-06T09:44:27.487Z,600
2018-08-06T09:45:07.974Z,596
2018-08-06T09:45:48.690Z,592
2018-08-06T09:46:29.284Z,600
2018-08-06T09:47:09.868Z,596
2018-08-06T09:47:50.367Z,596
2018-08-06T09:48:30.932Z,592
2018-08-06T09:49:11.376Z,592
2018-08-06T09:49:51.888Z,592
2018-08-06T09:50:32.456Z,592
2018-08-06T09:51:12.923Z,588
2018-08-06T09:51:53.439Z,592
2018-08-06T09:52:33.932Z,592
2018-08-06T09:53:14.428Z,592
2018-08-06T09:53:54.890Z,592
2018-08-06T09:54:35.398Z,588
2018-08-06T09:55:15.921Z,592
2018-08-06T09:55:56.414Z,604
2018-08-06T09:56:36.916Z,596
2018-08-06T09:57:17.435Z,600
2018-08-06T09:57:57.912Z,600
2018-08-06T09:58:38.392Z,604
2018-08-06T09:59:18.965Z,604
2018-08-06T09:59:59.429Z,608
2018-08-06T10:00:39.903Z,608
2018-08-06T10:01:20.364Z,604
2018-08-06T10:02:00.897Z,600
2018-08-06T10:02:41.444Z,596
2018-08-06T10:03:22.025Z,596
2018-08-06T10:04:02.534Z,592
2018-08-06T10:04:43.043Z,584
2018-08-06T10:05:23.597Z,584
2018-08-06T10:06:04.527Z,580
2018-08-06T10:06:45.137Z,580
2018-08-06T10:07:25.508Z,572